Pagrindinis puslapis
METAR-TAF:

METAR-TAF

Oro uostai :

Milford Municipal Airport (Ben and Judy Briscoe Field)

Milford, Juta, Jungtinės Amerikos Valstijos

platuma: 38-25-21N, ilguma: 113-00-35W, Aukštis: 1536 m

Dabartinis oras

Ataskaita buvo paskelbta 27 minutes, ne 20:52 UTC
Vėjas 9 kt iš Šiaurės/Šiaurės Rytų su gūsio iki 19 kt
Temperatūra 8°C
Drėgmė 42%
Slėgis 1023 hPa
Matomumas: 16.1 km
Išsisklaidę debesys ne aukštis 4700 ft

METAR: KMLF 272052Z AUTO 02009G19KT 10SM SCT047 08/M04 A3022 RMK AO2 SLP224 T00831044 58012

Laikas: 14:19 (21:19 UTC)


TAF: trūkstamas

Orai ataskaitas ir orų prognozės (METAR, TAF).

turimą stotys yra geltonos ir raudonos taškus žemėlapyje.

Perkelti pele per norėdami pamatyti stoties vardą.

Tada spustelėkite, norėdami matyti oro stebėjimo ir prognozės.

Norėdami pakeisti žemėlapį: spustelėkite ant žalios mygtukų su juodo kryžiaus žemyn,; žalią mygtuką su brūkšneliu, jei norite nutolinti; arba žalių rodyklių gretimoms žemėlapius.


METAR-TAF: